createdAt,value
2022-09-01T00:00:30.895Z,101750.41
2022-09-01T00:02:59.161Z,101742.56
2022-09-01T00:05:27.568Z,101747.69
2022-09-01T00:07:57.323Z,101746.19
2022-09-01T00:10:25.828Z,101751.72
2022-09-01T00:12:54.108Z,101749.38
2022-09-01T00:15:29.682Z,101748.97
2022-09-01T00:17:58.026Z,101749.97
2022-09-01T00:20:26.322Z,101746.72
2022-09-01T00:22:55.667Z,101749.03
2022-09-01T00:25:25.632Z,101755.19
2022-09-01T00:27:53.880Z,101745.63
2022-09-01T00:30:22.745Z,101754.19
2022-09-01T00:32:50.967Z,101753.31
2022-09-01T00:35:20.649Z,101749.25
2022-09-01T00:37:48.992Z,101740.78
2022-09-01T00:40:19.458Z,101751.38
2022-09-01T00:42:49.441Z,101745.72
2022-09-01T00:45:19.472Z,101748.75
2022-09-01T00:47:50.067Z,101744.75
2022-09-01T00:50:20.099Z,101740.78
2022-09-01T00:52:52.924Z,101747.00
2022-09-01T00:55:26.797Z,101739.03
2022-09-01T00:57:57.037Z,101741.25
2022-09-01T01:00:27.961Z,101741.25
2022-09-01T01:02:57.152Z,101741.97
2022-09-01T01:05:28.063Z,101737.19
2022-09-01T01:07:57.626Z,101731.66
2022-09-01T01:10:26.601Z,101736.81
2022-09-01T01:12:56.446Z,101729.00
2022-09-01T01:15:24.839Z,101736.53
2022-09-01T01:17:53.056Z,101727.09
2022-09-01T01:20:40.737Z,101731.03
2022-09-01T01:23:17.180Z,101734.56
2022-09-01T01:25:50.681Z,101729.84
2022-09-01T01:28:21.121Z,101728.69
2022-09-01T01:30:52.678Z,101736.59
2022-09-01T01:33:22.708Z,101728.69
2022-09-01T01:35:52.392Z,101732.25
2022-09-01T01:38:23.020Z,101733.78
2022-09-01T01:40:54.600Z,101730.22
2022-09-01T01:43:24.050Z,101734.50
2022-09-01T01:45:54.596Z,101735.59
2022-09-01T01:48:25.126Z,101741.72
2022-09-01T01:50:55.118Z,101743.53
2022-09-01T01:53:24.004Z,101747.72
2022-09-01T01:55:53.650Z,101756.19
2022-09-01T01:58:24.733Z,101753.69
2022-09-01T02:00:55.950Z,101755.22
2022-09-01T02:03:26.429Z,101756.66
2022-09-01T02:05:56.809Z,101754.91
2022-09-01T02:08:26.280Z,101757.22
2022-09-01T02:10:57.984Z,101748.41
2022-09-01T02:13:31.528Z,101760.16
2022-09-01T02:16:03.789Z,101751.34
2022-09-01T02:18:36.240Z,101763.09
2022-09-01T02:21:15.255Z,101761.47
2022-09-01T02:23:44.636Z,101759.00
2022-09-01T02:26:16.910Z,101765.31
2022-09-01T02:28:55.842Z,101763.22
2022-09-01T02:31:25.308Z,101764.31
2022-09-01T02:33:54.585Z,101764.31
2022-09-01T02:36:25.601Z,101759.50
2022-09-01T02:38:55.289Z,101760.56
2022-09-01T02:41:30.269Z,101757.03
2022-09-01T02:44:02.571Z,101753.78
2022-09-01T02:46:31.413Z,101759.31
2022-09-01T02:49:00.889Z,101750.25
2022-09-01T02:51:29.423Z,101753.44
2022-09-01T02:53:58.023Z,101755.88
2022-09-01T02:56:28.210Z,101753.53
2022-09-01T02:58:57.053Z,101748.28
2022-09-01T03:01:28.819Z,101752.19
2022-09-01T03:03:58.952Z,101742.69
2022-09-01T03:06:28.268Z,101752.19
2022-09-01T03:09:00.345Z,101745.81
2022-09-01T03:11:32.825Z,101748.09
2022-09-01T03:14:01.453Z,101749.69
2022-09-01T03:16:30.958Z,101751.31
2022-09-01T03:18:59.898Z,101764.72
2022-09-01T03:21:28.431Z,101762.34
2022-09-01T03:23:58.391Z,101757.50
2022-09-01T03:26:27.091Z,101758.22
2022-09-01T03:28:56.901Z,101762.03
2022-09-01T03:31:29.109Z,101768.50
2022-09-01T03:34:00.783Z,101761.75
2022-09-01T03:36:30.238Z,101764.03
2022-09-01T03:38:58.958Z,101763.22
2022-09-01T03:41:29.746Z,101765.91
2022-09-01T03:43:59.910Z,101758.28
2022-09-01T03:46:36.415Z,101763.81
2022-09-01T03:49:07.549Z,101757.66
2022-09-01T03:51:39.148Z,101756.72
2022-09-01T03:54:07.968Z,101749.19
2022-09-01T03:56:36.246Z,101752.66
2022-09-01T03:59:07.581Z,101753.31
2022-09-01T04:01:38.193Z,101759.19
2022-09-01T04:04:08.005Z,101750.38
2022-09-01T04:06:38.015Z,101752.78
2022-09-01T04:09:06.750Z,101753.47
2022-09-01T04:11:36.449Z,101750.16
2022-09-01T04:14:06.615Z,101745.81
2022-09-01T04:16:54.193Z,101752.25
2022-09-01T04:19:26.897Z,101752.03
2022-09-01T04:21:57.779Z,101747.22
2022-09-01T04:24:28.512Z,101757.78
2022-09-01T04:26:58.942Z,101756.97
2022-09-01T04:29:28.914Z,101761.22
2022-09-01T04:32:02.328Z,101753.41
2022-09-01T04:34:37.618Z,101757.78
2022-09-01T04:37:10.660Z,101756.63
2022-09-01T04:39:39.412Z,101758.22
2022-09-01T04:42:09.536Z,101748.84
2022-09-01T04:44:40.417Z,101753.19
2022-09-01T04:47:12.376Z,101749.16
2022-09-01T04:49:40.661Z,101752.72
2022-09-01T04:52:08.899Z,101749.53
2022-09-01T04:54:40.083Z,101748.38
2022-09-01T04:57:08.350Z,101762.47
2022-09-01T04:59:37.634Z,101755.81
2022-09-01T05:02:09.748Z,101751.81
2022-09-01T05:04:45.013Z,101762.25
2022-09-01T05:07:15.901Z,101757.78
2022-09-01T05:09:45.695Z,101761.59
2022-09-01T05:12:16.075Z,101766.06
2022-09-01T05:14:48.736Z,101771.44
2022-09-01T05:17:18.837Z,101773.56
2022-09-01T05:19:50.739Z,101766.38
2022-09-01T05:22:22.383Z,101763.13
2022-09-01T05:24:54.073Z,101768.53
2022-09-01T05:27:24.144Z,101766.94
2022-09-01T05:29:54.266Z,101768.06
2022-09-01T05:32:26.237Z,101768.88
2022-09-01T05:34:54.732Z,101769.09
2022-09-01T05:37:23.724Z,101770.22
2022-09-01T05:39:53.091Z,101777.00
2022-09-01T05:42:21.895Z,101771.72
2022-09-01T05:44:52.661Z,101781.13
2022-09-01T05:47:21.822Z,101772.38
2022-09-01T05:49:53.811Z,101771.72
2022-09-01T05:52:26.624Z,101773.31
2022-09-01T05:54:55.683Z,101779.28
2022-09-01T05:57:34.371Z,101771.03
2022-09-01T06:00:10.859Z,101771.03
2022-09-01T06:02:40.274Z,101769.88
2022-09-01T06:05:11.587Z,101772.63
2022-09-01T06:07:42.964Z,101778.94
2022-09-01T06:10:13.052Z,101785.25
2022-09-01T06:12:41.264Z,101784.31
2022-09-01T06:15:16.237Z,101777.22
2022-09-01T06:17:46.257Z,101787.50
2022-09-01T06:20:18.372Z,101788.00
2022-09-01T06:22:47.797Z,101781.59
2022-09-01T06:25:17.530Z,101785.25
2022-09-01T06:27:46.266Z,101773.38
2022-09-01T06:30:23.085Z,101776.56
2022-09-01T06:32:52.887Z,101779.97
2022-09-01T06:35:25.260Z,101783.34
2022-09-01T06:37:54.448Z,101780.06
2022-09-01T06:40:22.620Z,101782.69
2022-09-01T06:42:53.299Z,101780.69
2022-09-01T06:45:23.734Z,101782.94
2022-09-01T06:47:59.358Z,101778.03
2022-09-01T06:53:35.330Z,101771.47
2022-09-01T06:56:04.363Z,101769.75
2022-09-01T06:58:33.395Z,101771.09
2022-09-01T07:01:06.873Z,101776.66
2022-09-01T07:03:35.337Z,101777.19
2022-09-01T07:06:07.391Z,101770.06
2022-09-01T07:14:19.509Z,101772.69
2022-09-01T07:16:51.738Z,101770.53
2022-09-01T07:19:51.772Z,101777.75
2022-09-01T07:23:02.595Z,101768.00
2022-09-01T07:25:13.099Z,101768.38
2022-09-01T07:28:01.684Z,101767.03
2022-09-01T07:30:31.730Z,101757.78
2022-09-01T07:33:41.683Z,101761.56
2022-09-01T07:44:17.132Z,101761.16
2022-09-01T07:46:46.350Z,101764.44
2022-09-01T07:49:33.228Z,101761.72
2022-09-01T07:52:03.887Z,101755.38
2022-09-01T07:54:34.163Z,101764.94
2022-09-01T07:57:02.369Z,101760.63
2022-09-01T07:59:31.385Z,101758.66
2022-09-01T08:01:59.597Z,101756.69
2022-09-01T08:04:31.826Z,101761.06
2022-09-01T08:07:01.231Z,101761.84
2022-09-01T08:09:37.237Z,101761.03
2022-09-01T08:12:08.971Z,101769.75
2022-09-01T08:14:37.114Z,101757.38
2022-09-01T08:19:55.330Z,101764.91
2022-09-01T08:22:25.626Z,101764.41
2022-09-01T08:24:54.650Z,101764.31
2022-09-01T08:27:24.797Z,101759.88
2022-09-01T08:29:52.927Z,101769.44
2022-09-01T08:32:22.570Z,101774.94
2022-09-01T08:34:50.816Z,101768.56
2022-09-01T08:37:19.341Z,101764.50
2022-09-01T08:39:48.833Z,101763.63
2022-09-01T08:42:32.902Z,101762.69
2022-09-01T08:45:11.387Z,101757.84
2022-09-01T08:48:08.334Z,101756.31
2022-09-01T08:50:27.982Z,101758.78
2022-09-01T08:53:09.793Z,101765.06
2022-09-01T08:55:43.444Z,101749.78
2022-09-01T08:58:14.603Z,101758.47
2022-09-01T09:00:51.441Z,101765.78
2022-09-01T09:03:40.415Z,101759.09
2022-09-01T09:06:16.588Z,101752.25
2022-09-01T09:08:58.184Z,101755.34
2022-09-01T09:11:40.891Z,101750.41
2022-09-01T09:14:16.599Z,101747.97
2022-09-01T09:16:51.577Z,101745.47
2022-09-01T09:19:26.214Z,101754.41
2022-09-01T09:21:56.226Z,101740.34
2022-09-01T09:24:37.118Z,101735.34
2022-09-01T09:27:09.776Z,101732.28
2022-09-01T09:29:39.300Z,101731.91
2022-09-01T09:32:44.883Z,101728.78
2022-09-01T09:35:21.007Z,101725.88
2022-09-01T09:37:49.582Z,101728.47
2022-09-01T09:40:20.554Z,101723.72
2022-09-01T09:43:09.661Z,101724.09
2022-09-01T09:45:42.207Z,101709.63
2022-09-01T09:48:29.285Z,101715.13
2022-09-01T09:50:57.572Z,101718.19
2022-09-01T09:53:29.974Z,101709.75
2022-09-01T09:56:02.404Z,101712.06
2022-09-01T09:58:37.727Z,101725.53
2022-09-01T10:01:17.753Z,101706.31
2022-09-01T10:03:50.633Z,101700.25
2022-09-01T10:06:33.311Z,101703.13
2022-09-01T10:09:03.326Z,101691.72
2022-09-01T10:11:41.270Z,101680.91
2022-09-01T10:14:35.944Z,101696.31
2022-09-01T10:17:17.174Z,101699.22
2022-09-01T10:19:54.340Z,101692.00
2022-09-01T10:22:23.847Z,101687.00
2022-09-01T10:24:52.451Z,101690.94
2022-09-01T10:27:24.757Z,101690.19
2022-09-01T10:30:18.397Z,101686.88
2022-09-01T10:32:55.220Z,101685.13
2022-09-01T10:35:29.926Z,101685.66
2022-09-01T10:38:00.073Z,101690.06
2022-09-01T10:40:43.535Z,101671.47
2022-09-01T10:43:38.182Z,101687.66
2022-09-01T10:46:50.774Z,101674.59
2022-09-01T10:49:30.816Z,101675.78
2022-09-01T10:52:08.542Z,101673.94
2022-09-01T10:54:58.533Z,101677.75
2022-09-01T10:57:53.541Z,101672.00
2022-09-01T11:03:54.209Z,101678.47
2022-09-01T11:07:14.423Z,101659.84
2022-09-01T11:09:45.185Z,101659.56
2022-09-01T11:12:48.147Z,101660.69
2022-09-01T11:15:39.285Z,101660.16
2022-09-01T11:18:17.359Z,101655.69
2022-09-01T11:20:48.956Z,101649.47
2022-09-01T11:23:27.737Z,101641.78
2022-09-01T11:28:49.042Z,101646.66
2022-09-01T11:31:32.262Z,101657.97
2022-09-01T11:34:19.307Z,101648.97
2022-09-01T11:36:56.520Z,101644.22
2022-09-01T11:39:45.556Z,101641.56
2022-09-01T11:42:20.358Z,101629.84
2022-09-01T11:44:54.059Z,101626.34
2022-09-01T11:47:26.823Z,101650.38
2022-09-01T11:49:58.224Z,101628.09
2022-09-01T11:52:31.344Z,101639.66
2022-09-01T11:55:01.689Z,101631.59
2022-09-01T11:57:33.618Z,101626.16
2022-09-01T12:00:03.648Z,101634.56
2022-09-01T12:02:36.976Z,101624.69
2022-09-01T12:05:26.204Z,101622.50
2022-09-01T12:07:54.653Z,101615.56
2022-09-01T12:10:32.802Z,101620.84
2022-09-01T12:13:06.584Z,101613.53
2022-09-01T12:15:40.998Z,101606.88
2022-09-01T12:18:19.224Z,101603.38
2022-09-01T12:23:25.151Z,101615.63
2022-09-01T12:25:56.134Z,101606.53
2022-09-01T12:28:26.195Z,101603.66
2022-09-01T12:31:00.914Z,101589.34
2022-09-01T12:33:30.250Z,101600.88
2022-09-01T12:36:17.370Z,101595.44
2022-09-01T12:38:45.682Z,101594.78
2022-09-01T12:41:39.024Z,101593.59
2022-09-01T12:44:30.846Z,101588.13
2022-09-01T12:47:01.171Z,101585.75
2022-09-01T12:49:37.673Z,101586.28
2022-09-01T12:52:25.478Z,101593.31
2022-09-01T12:54:57.152Z,101581.63
2022-09-01T12:57:29.989Z,101577.59
2022-09-01T13:00:10.459Z,101580.94
2022-09-01T13:02:40.737Z,101585.16
2022-09-01T13:05:28.473Z,101579.66
2022-09-01T13:08:01.023Z,101570.25
2022-09-01T13:10:34.527Z,101570.97
2022-09-01T13:13:04.198Z,101572.00
2022-09-01T13:15:32.568Z,101573.75
2022-09-01T13:18:00.877Z,101566.91
2022-09-01T13:20:29.054Z,101561.50
2022-09-01T13:22:57.275Z,101560.09
2022-09-01T13:25:26.971Z,101559.56
2022-09-01T13:27:55.668Z,101554.63
2022-09-01T13:30:28.539Z,101538.34
2022-09-01T13:35:46.157Z,101532.19
2022-09-01T13:38:16.359Z,101534.81
2022-09-01T13:40:45.687Z,101533.50
2022-09-01T13:43:15.340Z,101524.63
2022-09-01T13:45:45.438Z,101528.47
2022-09-01T13:48:16.450Z,101514.97
2022-09-01T13:53:34.855Z,101525.84
2022-09-01T13:56:03.437Z,101519.28
2022-09-01T13:58:31.680Z,101523.13
2022-09-01T14:01:01.406Z,101513.63
2022-09-01T14:03:32.312Z,101520.06
2022-09-01T14:06:00.619Z,101513.69
2022-09-01T14:08:29.122Z,101505.50
2022-09-01T14:10:57.514Z,101500.13
2022-09-01T14:13:26.587Z,101506.63
2022-09-01T14:15:55.521Z,101516.28
2022-09-01T14:18:36.872Z,101513.72
2022-09-01T14:21:05.495Z,101515.28
2022-09-01T14:23:33.661Z,101514.84
2022-09-01T14:26:01.795Z,101509.84
2022-09-01T14:28:30.150Z,101505.34
2022-09-01T14:33:27.513Z,101505.88
2022-09-01T14:35:55.718Z,101501.50
2022-09-01T14:38:24.233Z,101497.81
2022-09-01T14:40:52.669Z,101501.50
2022-09-01T14:43:22.222Z,101483.53
2022-09-01T14:45:50.676Z,101494.28
2022-09-01T14:48:20.828Z,101493.38
2022-09-01T14:50:51.156Z,101493.16
2022-09-01T14:53:19.766Z,101483.50
2022-09-01T14:55:50.498Z,101479.78
2022-09-01T14:58:20.769Z,101472.59
2022-09-01T15:00:49.029Z,101476.16
2022-09-01T15:03:21.841Z,101476.16
2022-09-01T15:05:52.382Z,101479.56
2022-09-01T15:08:20.762Z,101476.44
2022-09-01T15:10:49.270Z,101477.81
2022-09-01T15:13:17.848Z,101473.97
2022-09-01T15:15:46.054Z,101480.28
2022-09-01T15:18:14.613Z,101480.38
2022-09-01T15:20:51.053Z,101469.84
2022-09-01T15:23:22.873Z,101461.53
2022-09-01T15:25:53.657Z,101476.91
2022-09-01T15:28:22.810Z,101469.56
2022-09-01T15:30:51.697Z,101458.81
2022-09-01T15:33:22.818Z,101454.22
2022-09-01T15:35:51.023Z,101459.13
2022-09-01T15:38:27.136Z,101455.00
2022-09-01T15:40:58.675Z,101453.72
2022-09-01T15:43:28.366Z,101450.63
2022-09-01T15:45:58.580Z,101463.88
2022-09-01T15:48:28.157Z,101455.81
2022-09-01T15:51:18.379Z,101454.06
2022-09-01T15:53:47.975Z,101451.34
2022-09-01T15:56:18.311Z,101448.97
2022-09-01T15:59:00.237Z,101444.69
2022-09-01T16:01:31.894Z,101448.47
2022-09-01T16:04:01.293Z,101456.78
2022-09-01T16:06:29.727Z,101449.84
2022-09-01T16:08:59.373Z,101445.97
2022-09-01T16:11:28.123Z,101449.28
2022-09-01T16:13:57.110Z,101447.16
2022-09-01T16:16:41.192Z,101454.00
2022-09-01T16:19:22.982Z,101452.41
2022-09-01T16:21:55.729Z,101448.44
2022-09-01T16:24:25.629Z,101442.59
2022-09-01T16:26:53.891Z,101437.94
2022-09-01T16:29:29.434Z,101438.38
2022-09-01T16:31:58.426Z,101435.88
2022-09-01T16:34:28.467Z,101433.19
2022-09-01T16:37:05.974Z,101428.25
2022-09-01T16:39:47.116Z,101431.53
2022-09-01T16:42:26.287Z,101426.88
2022-09-01T16:45:05.368Z,101431.84
2022-09-01T16:47:45.969Z,101431.97
2022-09-01T16:50:25.867Z,101425.44
2022-09-01T16:53:20.114Z,101436.00
2022-09-01T16:56:00.917Z,101427.75
2022-09-01T16:58:42.377Z,101434.91
2022-09-01T17:01:30.368Z,101430.00
2022-09-01T17:04:21.287Z,101426.25
2022-09-01T17:06:58.857Z,101426.69
2022-09-01T17:09:33.977Z,101427.47
2022-09-01T17:12:23.674Z,101421.34
2022-09-01T17:14:58.445Z,101428.94
2022-09-01T17:17:34.965Z,101423.94
2022-09-01T17:20:06.036Z,101426.00
2022-09-01T17:22:37.346Z,101425.38
2022-09-01T17:25:09.923Z,101422.22
2022-09-01T17:27:51.177Z,101422.69
2022-09-01T17:30:20.143Z,101422.78
2022-09-01T17:33:01.263Z,101422.16
2022-09-01T17:35:38.914Z,101425.41
2022-09-01T17:38:20.468Z,101423.06
2022-09-01T17:40:59.096Z,101423.91
2022-09-01T17:43:45.917Z,101420.09
2022-09-01T17:46:20.783Z,101424.97
2022-09-01T17:48:53.342Z,101424.28
2022-09-01T17:51:29.775Z,101428.44
2022-09-01T17:54:06.477Z,101421.38
2022-09-01T17:56:42.748Z,101428.66
2022-09-01T17:59:23.292Z,101428.03
2022-09-01T18:02:05.658Z,101431.31
2022-09-01T18:04:58.406Z,101432.28
2022-09-01T18:07:42.479Z,101424.34
2022-09-01T18:10:17.433Z,101427.59
2022-09-01T18:12:46.512Z,101431.63
2022-09-01T18:15:21.325Z,101427.69
2022-09-01T18:17:55.554Z,101436.50
2022-09-01T18:20:29.093Z,101430.16
2022-09-01T18:23:04.882Z,101435.75
2022-09-01T18:25:39.174Z,101440.59
2022-09-01T18:28:07.717Z,101426.72
2022-09-01T18:30:54.944Z,101445.41
2022-09-01T18:33:28.795Z,101444.25
2022-09-01T18:36:19.078Z,101447.03
2022-09-01T18:38:54.712Z,101452.59
2022-09-01T18:41:35.213Z,101453.03
2022-09-01T18:44:13.850Z,101455.81
2022-09-01T18:46:56.022Z,101464.59
2022-09-01T18:49:31.487Z,101459.47
2022-09-01T18:52:12.572Z,101459.13
2022-09-01T18:54:48.693Z,101468.25
2022-09-01T18:57:21.263Z,101467.09
2022-09-01T19:00:03.063Z,101467.13
2022-09-01T19:02:51.574Z,101477.41
2022-09-01T19:05:35.718Z,101472.28
2022-09-01T19:08:11.766Z,101469.13
2022-09-01T19:10:45.361Z,101469.50
2022-09-01T19:13:28.194Z,101467.53
2022-09-01T19:16:13.973Z,101475.88
2022-09-01T19:18:48.313Z,101465.53
2022-09-01T19:21:22.230Z,101465.56
2022-09-01T19:23:56.741Z,101469.94
2022-09-01T19:26:27.633Z,101474.69
2022-09-01T19:29:00.012Z,101476.66
2022-09-01T19:31:30.540Z,101477.47
2022-09-01T19:34:05.311Z,101483.00
2022-09-01T19:36:39.398Z,101477.84
2022-09-01T19:39:11.007Z,101488.56
2022-09-01T19:41:42.897Z,101482.97
2022-09-01T19:44:20.931Z,101477.78
2022-09-01T19:46:52.736Z,101481.38
2022-09-01T19:49:34.077Z,101479.38
2022-09-01T19:52:09.745Z,101479.78
2022-09-01T19:54:48.013Z,101480.97
2022-09-01T19:57:24.745Z,101479.34
2022-09-01T20:00:02.974Z,101485.28
2022-09-01T20:02:34.032Z,101484.44
2022-09-01T20:05:10.496Z,101480.44
2022-09-01T20:07:45.528Z,101481.56
2022-09-01T20:10:23.346Z,101485.88
2022-09-01T20:13:06.553Z,101480.72
2022-09-01T20:15:44.750Z,101485.81
2022-09-01T20:18:24.600Z,101477.84
2022-09-01T20:20:54.329Z,101482.56
2022-09-01T20:23:28.726Z,101482.50
2022-09-01T20:26:04.088Z,101480.94
2022-09-01T20:28:36.378Z,101478.06
2022-09-01T20:31:12.295Z,101484.34
2022-09-01T20:33:46.951Z,101483.59
2022-09-01T20:36:26.472Z,101474.50
2022-09-01T20:39:16.270Z,101486.72
2022-09-01T20:41:49.541Z,101483.88
2022-09-01T20:44:27.389Z,101482.63
2022-09-01T20:46:55.686Z,101476.31
2022-09-01T20:49:24.143Z,101481.84
2022-09-01T20:51:58.765Z,101477.09
2022-09-01T20:54:34.380Z,101479.06
2022-09-01T20:57:12.671Z,101481.00
2022-09-01T20:59:46.582Z,101493.25
2022-09-01T21:02:29.850Z,101485.66
2022-09-01T21:05:09.277Z,101489.53
2022-09-01T21:07:47.304Z,101484.75
2022-09-01T21:10:22.519Z,101490.63
2022-09-01T21:12:54.208Z,101492.94
2022-09-01T21:15:44.423Z,101496.75
2022-09-01T21:18:30.336Z,101499.91
2022-09-01T21:21:03.456Z,101495.06
2022-09-01T21:23:33.210Z,101493.41
2022-09-01T21:26:02.212Z,101495.72
2022-09-01T21:28:31.204Z,101486.59
2022-09-01T21:31:00.771Z,101487.00
2022-09-01T21:33:32.064Z,101479.81
2022-09-01T21:36:02.738Z,101479.75
2022-09-01T21:38:32.444Z,101491.53
2022-09-01T21:41:01.908Z,101487.16
2022-09-01T21:43:34.117Z,101475.25
2022-09-01T21:46:02.910Z,101478.78
2022-09-01T21:48:32.010Z,101487.38
2022-09-01T21:51:00.391Z,101483.41
2022-09-01T21:53:28.660Z,101475.53
2022-09-01T21:55:58.483Z,101482.66
2022-09-01T21:58:27.137Z,101475.94
2022-09-01T22:00:56.912Z,101473.16
2022-09-01T22:03:25.194Z,101478.22
2022-09-01T22:05:53.737Z,101475.41
2022-09-01T22:08:22.045Z,101467.47
2022-09-01T22:10:53.138Z,101469.03
2022-09-01T22:13:25.215Z,101469.78
2022-09-01T22:15:55.293Z,101469.75
2022-09-01T22:18:24.087Z,101464.09
2022-09-01T22:20:52.435Z,101473.06
2022-09-01T22:23:20.962Z,101480.44
2022-09-01T22:25:49.422Z,101480.25
2022-09-01T22:28:17.693Z,101470.66
2022-09-01T22:30:49.327Z,101478.78
2022-09-01T22:33:18.884Z,101474.31
2022-09-01T22:35:49.554Z,101464.81
2022-09-01T22:38:19.612Z,101475.06
2022-09-01T22:40:49.513Z,101467.09
2022-09-01T22:43:18.461Z,101476.53
2022-09-01T22:45:49.889Z,101470.94
2022-09-01T22:48:20.115Z,101479.59
2022-09-01T22:50:49.392Z,101477.94
2022-09-01T22:53:19.969Z,101469.16
2022-09-01T22:55:50.838Z,101468.28
2022-09-01T22:58:19.985Z,101466.69
2022-09-01T23:00:53.195Z,101468.66
2022-09-01T23:03:22.310Z,101458.00
2022-09-01T23:05:51.509Z,101461.91
2022-09-01T23:08:19.712Z,101457.13
2022-09-01T23:10:48.169Z,101456.25
2022-09-01T23:13:17.359Z,101458.91
2022-09-01T23:15:45.750Z,101460.81
2022-09-01T23:18:15.509Z,101451.38
2022-09-01T23:20:43.747Z,101454.63
2022-09-01T23:23:12.004Z,101458.56
2022-09-01T23:25:43.810Z,101449.91
2022-09-01T23:28:14.463Z,101443.63
2022-09-01T23:30:45.909Z,101439.34
2022-09-01T23:33:15.986Z,101444.09
2022-09-01T23:35:44.764Z,101435.00
2022-09-01T23:38:13.638Z,101438.56
2022-09-01T23:40:43.214Z,101438.13
2022-09-01T23:43:11.562Z,101441.25
2022-09-01T23:45:41.149Z,101435.22
2022-09-01T23:48:09.620Z,101431.63
2022-09-01T23:50:44.461Z,101433.84
2022-09-01T23:53:13.208Z,101434.56
2022-09-01T23:55:44.709Z,101437.63
2022-09-01T23:58:13.195Z,101431.69
